sensor_id;sensor_type;location;lat;lon;timestamp;pressure;altitude;pressure_sealevel;temperature;humidity
54042;BME280;41156;51.508;5.406;2022-09-09T00:03:16;100668.53;;;14.83;100.00
54042;BME280;41156;51.508;5.406;2022-09-09T00:06:28;100661.66;;;14.80;100.00
54042;BME280;41156;51.508;5.406;2022-09-09T00:09:40;100658.13;;;14.79;100.00
54042;BME280;41156;51.508;5.406;2022-09-09T00:12:57;100655.34;;;14.74;100.00
54042;BME280;41156;51.508;5.406;2022-09-09T00:16:07;100659.13;;;14.73;100.00
54042;BME280;41156;51.508;5.406;2022-09-09T00:19:21;100646.59;;;14.72;100.00
54042;BME280;41156;51.508;5.406;2022-09-09T00:22:24;100656.88;;;14.70;100.00
54042;BME280;41156;51.508;5.406;2022-09-09T00:25:31;100648.16;;;14.68;100.00
54042;BME280;41156;51.508;5.406;2022-09-09T00:28:39;100659.28;;;14.67;100.00
54042;BME280;41156;51.508;5.406;2022-09-09T00:31:41;100651.38;;;14.65;100.00
54042;BME280;41156;51.508;5.406;2022-09-09T00:34:49;100655.19;;;14.64;100.00
54042;BME280;41156;51.508;5.406;2022-09-09T00:37:51;100644.78;;;14.61;100.00
54042;BME280;41156;51.508;5.406;2022-09-09T00:41:00;100646.94;;;14.59;100.00
54042;BME280;41156;51.508;5.406;2022-09-09T00:47:39;100634.84;;;14.55;100.00
54042;BME280;41156;51.508;5.406;2022-09-09T00:51:02;100636.19;;;14.52;100.00
54042;BME280;41156;51.508;5.406;2022-09-09T00:57:29;100631.00;;;14.51;100.00
54042;BME280;41156;51.508;5.406;2022-09-09T01:00:35;100632.06;;;14.50;100.00
54042;BME280;41156;51.508;5.406;2022-09-09T01:03:46;100635.25;;;14.47;100.00
54042;BME280;41156;51.508;5.406;2022-09-09T01:06:54;100637.16;;;14.46;100.00
54042;BME280;41156;51.508;5.406;2022-09-09T01:09:58;100632.78;;;14.45;100.00
54042;BME280;41156;51.508;5.406;2022-09-09T01:13:02;100629.25;;;14.44;100.00
54042;BME280;41156;51.508;5.406;2022-09-09T01:16:08;100627.59;;;14.43;100.00
54042;BME280;41156;51.508;5.406;2022-09-09T01:19:24;100632.22;;;14.43;100.00
54042;BME280;41156;51.508;5.406;2022-09-09T01:26:14;100620.78;;;14.41;100.00
54042;BME280;41156;51.508;5.406;2022-09-09T01:29:18;100615.56;;;14.39;100.00
54042;BME280;41156;51.508;5.406;2022-09-09T01:36:10;100612.78;;;14.34;100.00
54042;BME280;41156;51.508;5.406;2022-09-09T01:39:12;100613.59;;;14.35;100.00
54042;BME280;41156;51.508;5.406;2022-09-09T01:42:14;100609.22;;;14.34;100.00
54042;BME280;41156;51.508;5.406;2022-09-09T01:45:15;100611.69;;;14.35;100.00
54042;BME280;41156;51.508;5.406;2022-09-09T01:48:18;100608.97;;;14.35;100.00
54042;BME280;41156;51.508;5.406;2022-09-09T01:51:19;100606.50;;;14.34;100.00
54042;BME280;41156;51.508;5.406;2022-09-09T01:54:21;100602.16;;;14.33;100.00
54042;BME280;41156;51.508;5.406;2022-09-09T01:57:44;100607.81;;;14.31;100.00
54042;BME280;41156;51.508;5.406;2022-09-09T02:01:23;100598.25;;;14.29;100.00
54042;BME280;41156;51.508;5.406;2022-09-09T02:04:59;100597.44;;;14.28;100.00
54042;BME280;41156;51.508;5.406;2022-09-09T02:08:07;100589.78;;;14.25;100.00
54042;BME280;41156;51.508;5.406;2022-09-09T02:11:14;100580.22;;;14.22;100.00
54042;BME280;41156;51.508;5.406;2022-09-09T02:14:18;100591.34;;;14.21;100.00
54042;BME280;41156;51.508;5.406;2022-09-09T02:17:27;100584.25;;;14.20;100.00
54042;BME280;41156;51.508;5.406;2022-09-09T02:20:30;100593.50;;;14.19;100.00
54042;BME280;41156;51.508;5.406;2022-09-09T02:23:33;100588.28;;;14.17;100.00
54042;BME280;41156;51.508;5.406;2022-09-09T02:26:37;100592.31;;;14.15;100.00
54042;BME280;41156;51.508;5.406;2022-09-09T02:29:41;100582.25;;;14.15;100.00
54042;BME280;41156;51.508;5.406;2022-09-09T02:32:43;100586.06;;;14.14;100.00
54042;BME280;41156;51.508;5.406;2022-09-09T02:35:46;100581.69;;;14.13;100.00
54042;BME280;41156;51.508;5.406;2022-09-09T02:38:47;100582.78;;;14.12;100.00
54042;BME280;41156;51.508;5.406;2022-09-09T02:41:53;100581.34;;;14.10;100.00
54042;BME280;41156;51.508;5.406;2022-09-09T02:44:53;100574.88;;;14.11;100.00
54042;BME280;41156;51.508;5.406;2022-09-09T02:48:14;100578.16;;;14.13;100.00
54042;BME280;41156;51.508;5.406;2022-09-09T02:51:26;100583.59;;;14.13;100.00
54042;BME280;41156;51.508;5.406;2022-09-09T02:54:30;100582.78;;;14.12;100.00
54042;BME280;41156;51.508;5.406;2022-09-09T02:57:33;100585.22;;;14.14;100.00
54042;BME280;41156;51.508;5.406;2022-09-09T03:00:35;100579.78;;;14.14;100.00
54042;BME280;41156;51.508;5.406;2022-09-09T03:03:39;100592.56;;;14.13;100.00
54042;BME280;41156;51.508;5.406;2022-09-09T03:06:41;100585.22;;;14.14;100.00
54042;BME280;41156;51.508;5.406;2022-09-09T03:09:41;100586.06;;;14.14;100.00
54042;BME280;41156;51.508;5.406;2022-09-09T03:12:42;100584.16;;;14.15;100.00
54042;BME280;41156;51.508;5.406;2022-09-09T03:15:42;100586.88;;;14.15;100.00
54042;BME280;41156;51.508;5.406;2022-09-09T03:18:42;100594.47;;;14.13;100.00
54042;BME280;41156;51.508;5.406;2022-09-09T03:21:47;100594.69;;;14.11;100.00
54042;BME280;41156;51.508;5.406;2022-09-09T03:24:48;100604.25;;;14.14;100.00
54042;BME280;41156;51.508;5.406;2022-09-09T03:27:48;100604.00;;;14.15;100.00
54042;BME280;41156;51.508;5.406;2022-09-09T03:30:49;100601.03;;;14.17;100.00
54042;BME280;41156;51.508;5.406;2022-09-09T03:33:49;100599.16;;;14.17;100.00
54042;BME280;41156;51.508;5.406;2022-09-09T03:36:50;100598.06;;;14.18;100.00
54042;BME280;41156;51.508;5.406;2022-09-09T03:39:50;100603.28;;;14.20;100.00
54042;BME280;41156;51.508;5.406;2022-09-09T03:42:50;100590.16;;;14.17;100.00
54042;BME280;41156;51.508;5.406;2022-09-09T03:45:51;100592.88;;;14.17;100.00
54042;BME280;41156;51.508;5.406;2022-09-09T03:48:52;100591.25;;;14.16;100.00
54042;BME280;41156;51.508;5.406;2022-09-09T03:51:52;100596.44;;;14.17;100.00
54042;BME280;41156;51.508;5.406;2022-09-09T03:54:53;100595.59;;;14.17;100.00
54042;BME280;41156;51.508;5.406;2022-09-09T03:57:54;100594.53;;;14.18;100.00
54042;BME280;41156;51.508;5.406;2022-09-09T04:03:58;100589.94;;;14.18;100.00
54042;BME280;41156;51.508;5.406;2022-09-09T04:06:59;100581.53;;;14.20;100.00
54042;BME280;41156;51.508;5.406;2022-09-09T04:09:59;100589.69;;;14.20;100.00
54042;BME280;41156;51.508;5.406;2022-09-09T04:12:59;100581.53;;;14.20;100.00
54042;BME280;41156;51.508;5.406;2022-09-09T04:16:01;100583.19;;;14.21;100.00
54042;BME280;41156;51.508;5.406;2022-09-09T04:19:03;100586.72;;;14.21;100.00
54042;BME280;41156;51.508;5.406;2022-09-09T04:22:04;100584.56;;;14.23;100.00
54042;BME280;41156;51.508;5.406;2022-09-09T04:25:05;100575.59;;;14.23;100.00
54042;BME280;41156;51.508;5.406;2022-09-09T04:28:06;100577.03;;;14.25;100.00
54042;BME280;41156;51.508;5.406;2022-09-09T04:31:14;100574.03;;;14.27;100.00
54042;BME280;41156;51.508;5.406;2022-09-09T04:34:14;100571.06;;;14.29;100.00
54042;BME280;41156;51.508;5.406;2022-09-09T04:37:15;100566.72;;;14.28;100.00
54042;BME280;41156;51.508;5.406;2022-09-09T04:40:15;100566.72;;;14.28;100.00
54042;BME280;41156;51.508;5.406;2022-09-09T04:43:15;100571.91;;;14.29;100.00
54042;BME280;41156;51.508;5.406;2022-09-09T04:46:16;100565.88;;;14.27;100.00
54042;BME280;41156;51.508;5.406;2022-09-09T04:49:17;100561.53;;;14.26;100.00
54042;BME280;41156;51.508;5.406;2022-09-09T04:52:17;100558.25;;;14.24;100.00
54042;BME280;41156;51.508;5.406;2022-09-09T04:55:18;100556.91;;;14.27;100.00
54042;BME280;41156;51.508;5.406;2022-09-09T04:58:18;100563.16;;;14.27;100.00
54042;BME280;41156;51.508;5.406;2022-09-09T05:01:20;100558.34;;;14.29;100.00
54042;BME280;41156;51.508;5.406;2022-09-09T05:04:21;100559.72;;;14.32;100.00
54042;BME280;41156;51.508;5.406;2022-09-09T05:07:22;100555.69;;;14.34;100.00
54042;BME280;41156;51.508;5.406;2022-09-09T05:10:22;100560.88;;;14.36;100.00
54042;BME280;41156;51.508;5.406;2022-09-09T05:13:23;100551.63;;;14.37;100.00
54042;BME280;41156;51.508;5.406;2022-09-09T05:16:24;100558.16;;;14.36;100.00
54042;BME280;41156;51.508;5.406;2022-09-09T05:19:24;100556.03;;;14.38;100.00
54042;BME280;41156;51.508;5.406;2022-09-09T05:22:24;100560.13;;;14.40;100.00
54042;BME280;41156;51.508;5.406;2022-09-09T05:25:25;100560.72;;;14.42;100.00
54042;BME280;41156;51.508;5.406;2022-09-09T05:28:26;100550.66;;;14.43;100.00
54042;BME280;41156;51.508;5.406;2022-09-09T05:31:29;100553.13;;;14.44;100.00
54042;BME280;41156;51.508;5.406;2022-09-09T05:34:30;100553.13;;;14.44;100.00
54042;BME280;41156;51.508;5.406;2022-09-09T05:37:30;100557.25;;;14.47;100.00
54042;BME280;41156;51.508;5.406;2022-09-09T05:40:31;100553.47;;;14.48;100.00
54042;BME280;41156;51.508;5.406;2022-09-09T05:43:31;100558.41;;;14.51;100.00
54042;BME280;41156;51.508;5.406;2022-09-09T05:46:32;100550.81;;;14.53;100.00
54042;BME280;41156;51.508;5.406;2022-09-09T05:49:33;100568.28;;;14.57;100.00
54042;BME280;41156;51.508;5.406;2022-09-09T05:52:33;100570.56;;;14.60;100.00
54042;BME280;41156;51.508;5.406;2022-09-09T05:55:33;100562.47;;;14.66;100.00
54042;BME280;41156;51.508;5.406;2022-09-09T05:58:34;100570.09;;;14.69;100.00
54042;BME280;41156;51.508;5.406;2022-09-09T06:01:36;100574.81;;;14.73;100.00
54042;BME280;41156;51.508;5.406;2022-09-09T06:04:40;100580.56;;;14.77;100.00
54042;BME280;41156;51.508;5.406;2022-09-09T06:07:41;100578.50;;;14.84;100.00
54042;BME280;41156;51.508;5.406;2022-09-09T06:10:42;100579.41;;;14.90;100.00
54042;BME280;41156;51.508;5.406;2022-09-09T06:13:44;100573.53;;;14.98;100.00
54042;BME280;41156;51.508;5.406;2022-09-09T06:16:44;100575.00;;;15.06;100.00
54042;BME280;41156;51.508;5.406;2022-09-09T06:19:45;100575.97;;;15.16;100.00
54042;BME280;41156;51.508;5.406;2022-09-09T06:22:45;100577.44;;;15.24;100.00
54042;BME280;41156;51.508;5.406;2022-09-09T06:25:46;100570.13;;;15.30;100.00
54042;BME280;41156;51.508;5.406;2022-09-09T06:28:48;100563.63;;;15.31;100.00
54042;BME280;41156;51.508;5.406;2022-09-09T06:31:49;100574.28;;;15.32;100.00
54042;BME280;41156;51.508;5.406;2022-09-09T06:34:49;100575.09;;;15.33;100.00
54042;BME280;41156;51.508;5.406;2022-09-09T06:37:50;100573.16;;;15.33;100.00
54042;BME280;41156;51.508;5.406;2022-09-09T06:40:56;100574.56;;;15.36;100.00
54042;BME280;41156;51.508;5.406;2022-09-09T06:43:57;100571.59;;;15.38;100.00
54042;BME280;41156;51.508;5.406;2022-09-09T06:46:58;100571.59;;;15.38;100.00
54042;BME280;41156;51.508;5.406;2022-09-09T06:49:58;100561.34;;;15.45;100.00
54042;BME280;41156;51.508;5.406;2022-09-09T06:52:58;100573.69;;;15.52;100.00
54042;BME280;41156;51.508;5.406;2022-09-09T06:56:17;100566.25;;;15.92;100.00
54042;BME280;41156;51.508;5.406;2022-09-09T06:59:18;100568.47;;;16.27;100.00
54042;BME280;41156;51.508;5.406;2022-09-09T07:02:18;100575.28;;;16.57;100.00
54042;BME280;41156;51.508;5.406;2022-09-09T07:05:19;100572.31;;;17.07;100.00
54042;BME280;41156;51.508;5.406;2022-09-09T07:08:19;100578.63;;;17.81;100.00
54042;BME280;41156;51.508;5.406;2022-09-09T07:11:22;100573.25;;;18.32;100.00
54042;BME280;41156;51.508;5.406;2022-09-09T07:14:23;100572.16;;;18.54;99.91
54042;BME280;41156;51.508;5.406;2022-09-09T07:17:23;100574.06;;;18.17;99.58
54042;BME280;41156;51.508;5.406;2022-09-09T07:20:23;100573.16;;;17.75;96.90
54042;BME280;41156;51.508;5.406;2022-09-09T07:23:24;100571.94;;;17.35;98.99
54042;BME280;41156;51.508;5.406;2022-09-09T07:26:27;100572.09;;;17.18;100.00
54042;BME280;41156;51.508;5.406;2022-09-09T07:29:28;100561.41;;;17.12;100.00
54042;BME280;41156;51.508;5.406;2022-09-09T07:32:28;100567.38;;;17.04;100.00
54042;BME280;41156;51.508;5.406;2022-09-09T07:35:30;100576.09;;;16.95;100.00
54042;BME280;41156;51.508;5.406;2022-09-09T07:38:30;100571.44;;;16.91;100.00
54042;BME280;41156;51.508;5.406;2022-09-09T07:41:33;100577.69;;;16.91;100.00
54042;BME280;41156;51.508;5.406;2022-09-09T07:44:34;100576.59;;;16.87;100.00
54042;BME280;41156;51.508;5.406;2022-09-09T07:47:35;100578.97;;;16.83;100.00
54042;BME280;41156;51.508;5.406;2022-09-09T07:50:35;100577.34;;;16.82;100.00
54042;BME280;41156;51.508;5.406;2022-09-09T07:53:36;100569.75;;;16.85;100.00
54042;BME280;41156;51.508;5.406;2022-09-09T07:56:37;100571.44;;;16.91;100.00
54042;BME280;41156;51.508;5.406;2022-09-09T07:59:38;100571.75;;;16.99;100.00
54042;BME280;41156;51.508;5.406;2022-09-09T08:02:39;100572.31;;;17.07;98.98
54042;BME280;41156;51.508;5.406;2022-09-09T08:05:39;100564.50;;;17.20;100.00
54042;BME280;41156;51.508;5.406;2022-09-09T08:08:40;100572.47;;;17.32;97.23
54042;BME280;41156;51.508;5.406;2022-09-09T08:11:42;100578.19;;;17.31;95.93
54042;BME280;41156;51.508;5.406;2022-09-09T08:14:43;100572.47;;;17.32;96.87
54042;BME280;41156;51.508;5.406;2022-09-09T08:17:43;100574.69;;;17.41;98.14
54042;BME280;41156;51.508;5.406;2022-09-09T08:20:43;100570.34;;;17.55;96.74
54042;BME280;41156;51.508;5.406;2022-09-09T08:23:45;100561.06;;;17.56;94.38
54042;BME280;41156;51.508;5.406;2022-09-09T08:26:47;100564.06;;;17.54;98.15
54042;BME280;41156;51.508;5.406;2022-09-09T08:29:50;100575.25;;;17.53;97.49
54042;BME280;41156;51.508;5.406;2022-09-09T08:32:51;100569.78;;;17.53;98.72
54042;BME280;41156;51.508;5.406;2022-09-09T08:35:51;100577.72;;;17.54;97.03
54042;BME280;41156;51.508;5.406;2022-09-09T08:38:56;100576.38;;;17.57;97.87
54042;BME280;41156;51.508;5.406;2022-09-09T08:45:18;100586.44;;;17.46;92.59
54042;BME280;41156;51.508;5.406;2022-09-09T08:48:31;100580.69;;;17.43;93.32
54042;BME280;41156;51.508;5.406;2022-09-09T08:51:38;100585.59;;;17.41;92.98
54042;BME280;41156;51.508;5.406;2022-09-09T08:54:39;100586.69;;;17.45;96.58
54042;BME280;41156;51.508;5.406;2022-09-09T08:57:39;100585.63;;;17.51;94.54
54042;BME280;41156;51.508;5.406;2022-09-09T09:07:10;100607.28;;;17.68;93.84
54042;BME280;41156;51.508;5.406;2022-09-09T09:13:29;100609.75;;;17.69;94.36
54042;BME280;41156;51.508;5.406;2022-09-09T09:19:34;100602.44;;;17.85;95.94
54042;BME280;41156;51.508;5.406;2022-09-09T09:22:40;100615.25;;;17.85;97.20
54042;BME280;41156;51.508;5.406;2022-09-09T09:25:43;100623.69;;;17.78;95.84
54042;BME280;41156;51.508;5.406;2022-09-09T09:28:44;100620.41;;;17.66;94.11
54042;BME280;41156;51.508;5.406;2022-09-09T09:31:48;100625.03;;;17.65;94.84
54042;BME280;41156;51.508;5.406;2022-09-09T09:34:58;100616.56;;;17.67;93.58
54042;BME280;41156;51.508;5.406;2022-09-09T09:38:01;100621.75;;;17.73;96.13
54042;BME280;41156;51.508;5.406;2022-09-09T09:41:03;100605.41;;;17.79;96.10
54042;BME280;41156;51.508;5.406;2022-09-09T09:44:04;100613.63;;;17.79;95.05
54042;BME280;41156;51.508;5.406;2022-09-09T09:50:18;100605.41;;;17.79;93.75
54042;BME280;41156;51.508;5.406;2022-09-09T09:53:22;100608.41;;;17.72;90.17
54042;BME280;41156;51.508;5.406;2022-09-09T09:56:27;100605.38;;;17.73;92.96
54042;BME280;41156;51.508;5.406;2022-09-09T09:59:34;100616.88;;;17.70;94.72
54042;BME280;41156;51.508;5.406;2022-09-09T10:02:40;100607.53;;;17.61;93.58
54042;BME280;41156;51.508;5.406;2022-09-09T10:05:45;100615.66;;;17.46;95.14
54042;BME280;41156;51.508;5.406;2022-09-09T10:08:46;100608.50;;;17.34;95.53
54042;BME280;41156;51.508;5.406;2022-09-09T10:12:08;100606.84;;;17.33;95.75
54042;BME280;41156;51.508;5.406;2022-09-09T10:18:45;100628.97;;;17.32;95.53
54042;BME280;41156;51.508;5.406;2022-09-09T10:25:37;100625.97;;;17.33;96.45
54042;BME280;41156;51.508;5.406;2022-09-09T10:29:08;100629.19;;;17.20;95.54
54042;BME280;41156;51.508;5.406;2022-09-09T10:32:33;100634.59;;;17.15;98.41
54042;BME280;41156;51.508;5.406;2022-09-09T10:35:52;100633.50;;;17.11;96.27
54042;BME280;41156;51.508;5.406;2022-09-09T10:39:05;100633.22;;;17.07;97.57
54042;BME280;41156;51.508;5.406;2022-09-09T10:42:15;100624.19;;;17.07;98.89
54042;BME280;41156;51.508;5.406;2022-09-09T10:52:39;100625.09;;;17.23;98.17
54042;BME280;41156;51.508;5.406;2022-09-09T10:55:45;100628.44;;;17.35;100.00
54042;BME280;41156;51.508;5.406;2022-09-09T10:58:52;100624.91;;;17.39;99.71
54042;BME280;41156;51.508;5.406;2022-09-09T11:02:02;100629.31;;;17.41;99.86
54042;BME280;41156;51.508;5.406;2022-09-09T11:05:20;100625.72;;;17.35;97.74
54042;BME280;41156;51.508;5.406;2022-09-09T11:08:24;100628.44;;;17.35;98.72
54042;BME280;41156;51.508;5.406;2022-09-09T11:11:38;100624.63;;;17.36;98.71
54042;BME280;41156;51.508;5.406;2022-09-09T11:14:48;100630.63;;;17.38;100.00
54042;BME280;41156;51.508;5.406;2022-09-09T11:17:56;100634.50;;;17.42;99.47
54042;BME280;41156;51.508;5.406;2022-09-09T11:21:00;100629.31;;;17.41;100.00
54042;BME280;41156;51.508;5.406;2022-09-09T11:24:10;100622.19;;;17.39;100.00
54042;BME280;41156;51.508;5.406;2022-09-09T11:27:23;100627.59;;;17.29;97.48
54042;BME280;41156;51.508;5.406;2022-09-09T11:30:31;100619.94;;;17.26;99.65
54042;BME280;41156;51.508;5.406;2022-09-09T11:33:55;100617.19;;;17.21;99.07
54042;BME280;41156;51.508;5.406;2022-09-09T11:37:15;100620.47;;;17.23;100.00
54042;BME280;41156;51.508;5.406;2022-09-09T11:40:24;100616.66;;;17.24;100.00
54042;BME280;41156;51.508;5.406;2022-09-09T11:46:35;100620.75;;;17.27;98.73
54042;BME280;41156;51.508;5.406;2022-09-09T11:52:40;100622.94;;;17.30;99.99
54042;BME280;41156;51.508;5.406;2022-09-09T11:55:43;100622.13;;;17.29;100.00
54042;BME280;41156;51.508;5.406;2022-09-09T11:58:54;100627.59;;;17.29;99.27
54042;BME280;41156;51.508;5.406;2022-09-09T12:01:58;100621.56;;;17.22;100.00
54042;BME280;41156;51.508;5.406;2022-09-09T12:05:11;100616.63;;;17.19;100.00
54042;BME280;41156;51.508;5.406;2022-09-09T12:08:24;100616.13;;;17.27;100.00
54042;BME280;41156;51.508;5.406;2022-09-09T12:11:28;100611.28;;;17.45;100.00
54042;BME280;41156;51.508;5.406;2022-09-09T12:14:44;100606.72;;;17.66;99.47
54042;BME280;41156;51.508;5.406;2022-09-09T12:17:56;100613.09;;;17.87;100.00
54042;BME280;41156;51.508;5.406;2022-09-09T12:21:11;100607.34;;;17.88;99.89
54042;BME280;41156;51.508;5.406;2022-09-09T12:24:35;100607.94;;;17.90;100.00
54042;BME280;41156;51.508;5.406;2022-09-09T12:27:45;100609.81;;;17.90;99.95
54042;BME280;41156;51.508;5.406;2022-09-09T12:34:15;100603.28;;;17.96;98.71
54042;BME280;41156;51.508;5.406;2022-09-09T12:37:36;100606.03;;;17.96;95.61
54042;BME280;41156;51.508;5.406;2022-09-09T12:40:37;100601.63;;;17.95;99.43
54042;BME280;41156;51.508;5.406;2022-09-09T12:43:39;100597.81;;;17.91;96.60
54042;BME280;41156;51.508;5.406;2022-09-09T12:46:44;100599.38;;;17.82;95.96
54042;BME280;41156;51.508;5.406;2022-09-09T12:49:47;100590.91;;;17.73;99.74
54042;BME280;41156;51.508;5.406;2022-09-09T12:52:51;100594.44;;;17.68;99.89
54042;BME280;41156;51.508;5.406;2022-09-09T12:55:58;100593.03;;;17.50;98.54
54042;BME280;41156;51.508;5.406;2022-09-09T12:58:59;100577.06;;;17.32;100.00
54042;BME280;41156;51.508;5.406;2022-09-09T13:02:00;100563.66;;;17.20;100.00
54042;BME280;41156;51.508;5.406;2022-09-09T13:08:27;100585.97;;;17.07;100.00
54042;BME280;41156;51.508;5.406;2022-09-09T13:11:36;100591.28;;;17.24;100.00
54042;BME280;41156;51.508;5.406;2022-09-09T13:14:38;100589.44;;;17.45;100.00
54042;BME280;41156;51.508;5.406;2022-09-09T13:17:39;100583.81;;;17.77;100.00
54042;BME280;41156;51.508;5.406;2022-09-09T13:20:46;100576.22;;;17.94;100.00
54042;BME280;41156;51.508;5.406;2022-09-09T13:23:50;100579.81;;;18.21;100.00
54042;BME280;41156;51.508;5.406;2022-09-09T13:27:00;100583.91;;;18.54;100.00
54042;BME280;41156;51.508;5.406;2022-09-09T13:30:24;100580.34;;;18.64;100.00
54042;BME280;41156;51.508;5.406;2022-09-09T13:33:32;100576.50;;;18.65;100.00
54042;BME280;41156;51.508;5.406;2022-09-09T13:36:34;100579.22;;;18.70;100.00
54042;BME280;41156;51.508;5.406;2022-09-09T13:39:36;100578.16;;;18.66;100.00
54042;BME280;41156;51.508;5.406;2022-09-09T13:42:40;100574.06;;;18.58;99.38
54042;BME280;41156;51.508;5.406;2022-09-09T13:45:52;100582.00;;;18.49;97.35
54042;BME280;41156;51.508;5.406;2022-09-09T13:48:55;100585.81;;;18.43;100.00
54042;BME280;41156;51.508;5.406;2022-09-09T13:52:04;100571.34;;;18.38;97.88
54042;BME280;41156;51.508;5.406;2022-09-09T13:55:09;100580.34;;;18.38;100.00
54042;BME280;41156;51.508;5.406;2022-09-09T13:58:15;100580.06;;;18.45;100.00
54042;BME280;41156;51.508;5.406;2022-09-09T14:01:18;100577.38;;;18.55;100.00
54042;BME280;41156;51.508;5.406;2022-09-09T14:04:19;100569.41;;;18.59;96.33
54042;BME280;41156;51.508;5.406;2022-09-09T14:07:22;100563.41;;;18.62;100.00
54042;BME280;41156;51.508;5.406;2022-09-09T14:10:23;100571.63;;;18.62;100.00
54042;BME280;41156;51.508;5.406;2022-09-09T14:13:23;100568.31;;;18.60;96.48
54042;BME280;41156;51.508;5.406;2022-09-09T14:16:23;100564.19;;;18.67;99.72
54042;BME280;41156;51.508;5.406;2022-09-09T14:19:23;100563.09;;;18.74;100.00
54042;BME280;41156;51.508;5.406;2022-09-09T14:22:24;100571.03;;;18.80;99.40
54042;BME280;41156;51.508;5.406;2022-09-09T14:25:25;100568.03;;;18.87;99.36
54042;BME280;41156;51.508;5.406;2022-09-09T14:28:25;100562.53;;;18.97;97.99
54042;BME280;41156;51.508;5.406;2022-09-09T14:31:26;100564.66;;;19.16;97.72
54042;BME280;41156;51.508;5.406;2022-09-09T14:34:26;100559.63;;;19.44;97.72
54042;BME280;41156;51.508;5.406;2022-09-09T14:37:27;100566.06;;;19.73;96.95
54042;BME280;41156;51.508;5.406;2022-09-09T14:40:27;100563.03;;;19.70;93.81
54042;BME280;41156;51.508;5.406;2022-09-09T14:43:28;100562.03;;;19.55;95.87
54042;BME280;41156;51.508;5.406;2022-09-09T14:46:30;100553.00;;;19.50;96.61
54042;BME280;41156;51.508;5.406;2022-09-09T14:49:31;100566.97;;;19.48;93.97
54042;BME280;41156;51.508;5.406;2022-09-09T14:52:31;100557.72;;;19.39;94.36
54042;BME280;41156;51.508;5.406;2022-09-09T14:55:31;100561.31;;;19.34;96.02
54042;BME280;41156;51.508;5.406;2022-09-09T14:58:32;100553.63;;;19.31;88.61
54042;BME280;41156;51.508;5.406;2022-09-09T15:01:32;100555.00;;;19.34;95.96
54042;BME280;41156;51.508;5.406;2022-09-09T15:04:34;100557.69;;;19.49;94.63
54042;BME280;41156;51.508;5.406;2022-09-09T15:07:34;100547.75;;;19.64;94.24
54042;BME280;41156;51.508;5.406;2022-09-09T15:10:37;100548.31;;;19.60;88.32
54042;BME280;41156;51.508;5.406;2022-09-09T15:13:40;100552.72;;;19.51;93.99
54042;BME280;41156;51.508;5.406;2022-09-09T15:16:40;100560.19;;;19.40;93.38
54042;BME280;41156;51.508;5.406;2022-09-09T15:19:41;100604.38;;;19.23;90.97
54042;BME280;41156;51.508;5.406;2022-09-09T15:22:42;100615.91;;;18.79;84.11
54042;BME280;41156;51.508;5.406;2022-09-09T15:25:54;100615.03;;;18.02;92.21
54042;BME280;41156;51.508;5.406;2022-09-09T15:28:56;100625.72;;;17.40;94.08
54042;BME280;41156;51.508;5.406;2022-09-09T15:31:59;100628.25;;;16.99;96.63
54042;BME280;41156;51.508;5.406;2022-09-09T15:34:59;100606.78;;;16.75;98.56
54042;BME280;41156;51.508;5.406;2022-09-09T15:38:02;100595.47;;;16.61;99.58
54042;BME280;41156;51.508;5.406;2022-09-09T15:41:03;100603.34;;;16.58;100.00
54042;BME280;41156;51.508;5.406;2022-09-09T15:44:03;100592.16;;;16.54;100.00
54042;BME280;41156;51.508;5.406;2022-09-09T15:47:04;100592.41;;;16.53;100.00
54042;BME280;41156;51.508;5.406;2022-09-09T15:50:04;100592.41;;;16.53;100.00
54042;BME280;41156;51.508;5.406;2022-09-09T15:53:05;100585.91;;;16.59;100.00
54042;BME280;41156;51.508;5.406;2022-09-09T15:56:06;100592.22;;;16.64;100.00
54042;BME280;41156;51.508;5.406;2022-09-09T15:59:06;100595.50;;;16.67;100.00
54042;BME280;41156;51.508;5.406;2022-09-09T16:02:07;100601.84;;;16.72;100.00
54042;BME280;41156;51.508;5.406;2022-09-09T16:05:09;100597.75;;;16.75;100.00
54042;BME280;41156;51.508;5.406;2022-09-09T16:08:09;100603.75;;;16.77;100.00
54042;BME280;41156;51.508;5.406;2022-09-09T16:11:15;100611.69;;;16.78;100.00
54042;BME280;41156;51.508;5.406;2022-09-09T16:14:16;100617.97;;;16.79;100.00
54042;BME280;41156;51.508;5.406;2022-09-09T16:17:16;100635.16;;;16.79;100.00
54042;BME280;41156;51.508;5.406;2022-09-09T16:20:19;100638.16;;;16.78;100.00
54042;BME280;41156;51.508;5.406;2022-09-09T16:23:19;100656.69;;;16.76;100.00
54042;BME280;41156;51.508;5.406;2022-09-09T16:26:20;100645.50;;;16.72;100.00
54042;BME280;41156;51.508;5.406;2022-09-09T16:29:21;100641.06;;;16.66;100.00
54042;BME280;41156;51.508;5.406;2022-09-09T16:32:22;100642.66;;;16.62;100.00
54042;BME280;41156;51.508;5.406;2022-09-09T16:35:22;100643.19;;;16.59;100.00
54042;BME280;41156;51.508;5.406;2022-09-09T16:38:23;100647.47;;;16.50;100.00
54042;BME280;41156;51.508;5.406;2022-09-09T16:41:25;100644.41;;;16.41;100.00
54042;BME280;41156;51.508;5.406;2022-09-09T16:44:27;100648.41;;;16.33;100.00
54042;BME280;41156;51.508;5.406;2022-09-09T16:47:27;100660.88;;;16.24;100.00
54042;BME280;41156;51.508;5.406;2022-09-09T16:50:30;100664.88;;;16.16;100.00
54042;BME280;41156;51.508;5.406;2022-09-09T16:53:32;100663.75;;;16.12;100.00
54042;BME280;41156;51.508;5.406;2022-09-09T16:56:36;100658.22;;;16.07;100.00
54042;BME280;41156;51.508;5.406;2022-09-09T16:59:41;100655.44;;;16.02;100.00